Time;durP1;ratioP1;P1;durP2;ratioP2;P2;SDS_P1;SDS_P2;PMS_P1;PMS_P2;Temp;Humidity;BMP_temperature;BMP_pressure;BME280_temperature;BME280_humidity;BME280_pressure;Samples;Min_cycle;Max_cycle;Signal;HPM_P1;HPM_P2
2021/05/13 00:02:16;;;;;;;21.92;14.25;;;;;;;;;;5007927;28;20477;-78
2021/05/13 00:04:41;;;;;;;23.77;13.48;;;;;;;;;;5006321;28;20061;-78
2021/05/13 00:07:06;;;;;;;22.52;13.65;;;;;;;;;;5007787;28;20477;-77
2021/05/13 00:09:32;;;;;;;21.23;12.48;;;;;;;;;;5007669;28;20026;-79
2021/05/13 00:12:00;;;;;;;26.73;14.75;;;;;;;;;;5006479;28;20026;-78
2021/05/13 00:14:25;;;;;;;22.75;13.10;;;;;;;;;;5007534;28;20124;-78
2021/05/13 00:16:50;;;;;;;22.95;14.77;;;;;;;;;;5007661;28;20120;-78
2021/05/13 00:19:15;;;;;;;23.75;13.90;;;;;;;;;;5007635;28;20142;-79
2021/05/13 00:21:42;;;;;;;24.23;14.27;;;;;;;;;;5008729;28;20433;-78
2021/05/13 00:24:08;;;;;;;25.05;14.45;;;;;;;;;;5007023;28;20524;-77
2021/05/13 00:26:37;;;;;;;22.67;14.75;;;;;;;;;;5012165;28;20126;-79
2021/05/13 00:29:03;;;;;;;24.17;14.50;;;;;;;;;;5010737;28;20068;-78
2021/05/13 00:31:29;;;;;;;24.10;14.30;;;;;;;;;;5012058;28;20054;-78
2021/05/13 00:33:54;;;;;;;26.58;14.93;;;;;;;;;;5009163;28;20061;-78
2021/05/13 00:36:19;;;;;;;25.60;14.32;;;;;;;;;;5012549;28;20018;-77
2021/05/13 00:38:44;;;;;;;23.67;13.77;;;;;;;;;;5011148;28;20519;-78
2021/05/13 00:41:09;;;;;;;28.13;15.80;;;;;;;;;;5011561;28;20022;-78
2021/05/13 00:43:35;;;;;;;25.55;15.68;;;;;;;;;;5010224;28;20598;-77
2021/05/13 00:46:00;;;;;;;27.02;16.08;;;;;;;;;;4994324;28;20076;-79
2021/05/13 00:48:32;;;;;;;25.88;14.60;;;;;;;;;;5011696;28;20018;-79
2021/05/13 00:50:57;;;;;;;27.70;15.73;;;;;;;;;;5011515;28;20080;-80
2021/05/13 00:53:24;;;;;;;26.90;15.38;;;;;;;;;;4997307;28;20025;-79
2021/05/13 00:55:49;;;;;;;25.23;15.15;;;;;;;;;;5011243;28;20096;-79
2021/05/13 00:58:15;;;;;;;34.08;16.38;;;;;;;;;;5012736;28;20390;-77
2021/05/13 01:00:49;;;;;;;28.05;16.02;;;;;;;;;;5011333;28;20026;-78
2021/05/13 01:03:14;;;;;;;30.35;16.38;;;;;;;;;;5011896;28;20026;-78
2021/05/13 01:05:39;;;;;;;28.38;16.50;;;;;;;;;;4993871;28;20457;-79
2021/05/13 01:08:05;;;;;;;28.45;16.55;;;;;;;;;;5008085;28;20069;-78
2021/05/13 01:10:30;;;;;;;28.38;15.15;;;;;;;;;;5007781;28;20026;-79
2021/05/13 01:13:12;;;;;;;28.90;15.88;;;;;;;;;;5009717;28;20030;-78
2021/05/13 01:15:42;;;;;;;30.67;15.43;;;;;;;;;;5010653;28;20033;-77
2021/05/13 01:20:34;;;;;;;28.17;15.70;;;;;;;;;;5011421;28;20103;-78
2021/05/13 01:22:59;;;;;;;30.33;16.80;;;;;;;;;;4992881;28;20041;-77
2021/05/13 01:25:25;;;;;;;28.77;16.45;;;;;;;;;;5010838;28;20034;-77
2021/05/13 01:28:00;;;;;;;27.30;15.65;;;;;;;;;;5010296;28;20057;-79
2021/05/13 01:30:26;;;;;;;24.33;14.73;;;;;;;;;;5010567;28;20026;-78
2021/05/13 01:32:53;;;;;;;23.95;14.27;;;;;;;;;;5010844;28;20029;-80
2021/05/13 01:35:18;;;;;;;26.45;15.38;;;;;;;;;;5010838;28;20048;-78
2021/05/13 01:37:43;;;;;;;27.50;15.95;;;;;;;;;;5009821;28;20469;-78
2021/05/13 01:40:09;;;;;;;24.90;14.82;;;;;;;;;;5010823;28;20164;-77
2021/05/13 01:42:34;;;;;;;24.23;14.63;;;;;;;;;;5011497;28;20508;-78
2021/05/13 01:44:59;;;;;;;24.98;14.57;;;;;;;;;;5010665;28;20030;-77
2021/05/13 01:47:24;;;;;;;24.73;15.02;;;;;;;;;;5009843;28;20048;-77
2021/05/13 01:49:49;;;;;;;26.48;14.45;;;;;;;;;;5006990;28;20084;-78
2021/05/13 01:52:15;;;;;;;22.73;14.48;;;;;;;;;;5010343;28;20032;-78
2021/05/13 01:54:40;;;;;;;26.52;14.98;;;;;;;;;;5012687;28;20062;-78
2021/05/13 01:57:06;;;;;;;26.15;15.13;;;;;;;;;;5010800;28;20032;-77
2021/05/13 01:59:31;;;;;;;26.17;14.38;;;;;;;;;;5009345;28;20034;-77
2021/05/13 02:01:58;;;;;;;24.30;14.70;;;;;;;;;;5009859;28;20026;-78
2021/05/13 02:04:23;;;;;;;27.40;13.55;;;;;;;;;;5004666;28;20030;-77
2021/05/13 02:06:48;;;;;;;25.40;15.00;;;;;;;;;;5010155;28;20121;-78
2021/05/13 02:09:13;;;;;;;23.92;13.35;;;;;;;;;;5008233;28;20444;-77
2021/05/13 02:11:39;;;;;;;26.95;15.10;;;;;;;;;;5010630;28;20018;-78
2021/05/13 02:14:04;;;;;;;25.00;14.95;;;;;;;;;;5011124;28;20076;-77
2021/05/13 02:16:29;;;;;;;22.90;13.57;;;;;;;;;;5009581;28;20100;-78
2021/05/13 02:18:54;;;;;;;24.13;14.38;;;;;;;;;;5009853;28;20018;-78
2021/05/13 02:21:19;;;;;;;21.73;13.65;;;;;;;;;;5011342;28;20044;-78
2021/05/13 02:23:45;;;;;;;22.58;14.25;;;;;;;;;;5011761;28;20018;-79
2021/05/13 02:26:10;;;;;;;25.13;14.10;;;;;;;;;;5011501;28;20081;-78
2021/05/13 02:28:35;;;;;;;21.48;13.73;;;;;;;;;;4993722;28;20044;-77
2021/05/13 02:31:01;;;;;;;26.52;14.40;;;;;;;;;;5019517;28;20034;-78
2021/05/13 02:33:26;;;;;;;21.23;13.60;;;;;;;;;;5025618;28;20290;-77
2021/05/13 02:35:51;;;;;;;24.55;14.45;;;;;;;;;;5025760;28;20044;-77
2021/05/13 02:38:16;;;;;;;26.10;14.38;;;;;;;;;;5025806;28;20018;-78
2021/05/13 02:40:41;;;;;;;28.05;14.27;;;;;;;;;;5015980;28;20052;-79
2021/05/13 02:43:07;;;;;;;25.10;12.75;;;;;;;;;;5012884;28;20026;-77
2021/05/13 02:45:32;;;;;;;25.40;13.85;;;;;;;;;;5017854;28;20044;-79
2021/05/13 02:47:58;;;;;;;21.73;13.23;;;;;;;;;;5013326;28;20036;-78
2021/05/13 02:50:24;;;;;;;26.52;14.32;;;;;;;;;;5004688;28;20037;-78
2021/05/13 02:52:49;;;;;;;26.45;15.50;;;;;;;;;;5010790;28;20080;-78
2021/05/13 02:55:15;;;;;;;30.02;14.60;;;;;;;;;;5016259;28;20112;-78
2021/05/13 02:57:40;;;;;;;27.20;14.90;;;;;;;;;;5010499;28;20089;-77
2021/05/13 03:02:52;;;;;;;31.40;15.15;;;;;;;;;;5009381;28;20032;-79
2021/05/13 03:05:18;;;;;;;28.25;15.20;;;;;;;;;;5007370;28;20034;-78
2021/05/13 03:07:49;;;;;;;24.08;14.18;;;;;;;;;;5004192;28;20390;-78
2021/05/13 03:10:20;;;;;;;27.00;14.23;;;;;;;;;;4990488;28;20080;-77
2021/05/13 03:12:47;;;;;;;22.73;13.73;;;;;;;;;;4991559;28;20499;-78
2021/05/13 03:15:12;;;;;;;23.70;14.73;;;;;;;;;;4989601;28;20048;-77
2021/05/13 03:17:38;;;;;;;29.42;14.95;;;;;;;;;;5008452;28;20753;-78
2021/05/13 03:20:03;;;;;;;23.05;13.60;;;;;;;;;;5008631;28;20030;-78
2021/05/13 03:22:28;;;;;;;26.30;14.13;;;;;;;;;;5007715;28;20403;-78
2021/05/13 03:25:04;;;;;;;25.25;14.57;;;;;;;;;;5009443;28;20101;-77
2021/05/13 03:27:51;;;;;;;22.23;13.18;;;;;;;;;;5002630;28;20349;-78
2021/05/13 03:30:19;;;;;;;24.08;14.10;;;;;;;;;;5008781;28;20026;-79
2021/05/13 03:32:44;;;;;;;23.77;14.20;;;;;;;;;;5008673;28;20052;-79
2021/05/13 03:35:11;;;;;;;29.90;14.93;;;;;;;;;;5008062;28;20033;-78
2021/05/13 03:37:36;;;;;;;24.90;14.10;;;;;;;;;;5008467;28;20033;-78
2021/05/13 03:40:01;;;;;;;28.02;14.60;;;;;;;;;;5007350;28;20069;-77
2021/05/13 03:42:26;;;;;;;25.13;14.15;;;;;;;;;;5007923;28;20049;-77
2021/05/13 03:44:51;;;;;;;24.48;14.00;;;;;;;;;;5007876;28;20075;-78
2021/05/13 03:47:17;;;;;;;24.02;13.88;;;;;;;;;;5007828;28;20014;-78
2021/05/13 03:49:43;;;;;;;24.52;14.32;;;;;;;;;;5008759;28;20032;-78
2021/05/13 03:52:08;;;;;;;21.08;13.88;;;;;;;;;;5006693;28;20026;-79
2021/05/13 03:54:33;;;;;;;22.27;13.15;;;;;;;;;;5013686;28;20536;-80
2021/05/13 03:56:59;;;;;;;24.33;13.40;;;;;;;;;;5007761;28;20048;-78
2021/05/13 03:59:24;;;;;;;21.77;13.13;;;;;;;;;;5007887;28;20139;-78
2021/05/13 04:04:33;;;;;;;21.77;12.95;;;;;;;;;;5002659;28;20557;-78
2021/05/13 04:06:58;;;;;;;21.48;12.25;;;;;;;;;;5006486;28;20037;-79
2021/05/13 04:09:24;;;;;;;24.13;13.02;;;;;;;;;;5007592;28;20030;-79
2021/05/13 04:11:49;;;;;;;21.17;13.13;;;;;;;;;;5002596;28;20026;-79
2021/05/13 04:14:15;;;;;;;23.88;13.05;;;;;;;;;;4990391;28;20038;-79
2021/05/13 04:16:42;;;;;;;19.23;11.73;;;;;;;;;;5006661;28;20121;-80
2021/05/13 04:19:07;;;;;;;20.48;11.82;;;;;;;;;;5007515;28;20018;-78
2021/05/13 04:21:33;;;;;;;20.10;11.82;;;;;;;;;;5007807;28;20498;-78
2021/05/13 04:23:58;;;;;;;17.45;11.25;;;;;;;;;;5011653;28;20026;-80
2021/05/13 04:26:23;;;;;;;23.45;12.18;;;;;;;;;;5006725;28;20517;-79
2021/05/13 04:28:49;;;;;;;22.25;12.27;;;;;;;;;;5009067;28;20072;-79
2021/05/13 04:31:14;;;;;;;20.35;12.35;;;;;;;;;;5007099;28;20084;-79
2021/05/13 04:33:39;;;;;;;21.25;13.02;;;;;;;;;;5008191;28;20073;-79
2021/05/13 04:36:05;;;;;;;22.33;12.75;;;;;;;;;;5006847;28;20443;-78
2021/05/13 04:38:31;;;;;;;17.08;11.75;;;;;;;;;;5007904;28;20026;-80
2021/05/13 04:40:56;;;;;;;22.42;11.45;;;;;;;;;;4988473;28;20037;-79
2021/05/13 04:43:21;;;;;;;17.15;10.57;;;;;;;;;;5009066;28;20018;-78
2021/05/13 04:45:47;;;;;;;17.40;11.57;;;;;;;;;;5005839;28;20036;-79
2021/05/13 04:48:16;;;;;;;20.92;12.50;;;;;;;;;;5006399;28;20067;-77
2021/05/13 04:50:41;;;;;;;21.60;11.95;;;;;;;;;;5007982;28;20388;-78
2021/05/13 04:53:10;;;;;;;19.30;11.68;;;;;;;;;;5007784;28;20022;-79
2021/05/13 04:55:37;;;;;;;19.52;11.95;;;;;;;;;;5007957;28;20038;-77
2021/05/13 04:58:02;;;;;;;20.70;12.23;;;;;;;;;;5007169;28;20098;-78
2021/05/13 05:00:27;;;;;;;19.75;11.55;;;;;;;;;;5006523;28;20620;-78
2021/05/13 05:02:53;;;;;;;18.83;11.02;;;;;;;;;;5008537;28;20026;-78
2021/05/13 05:05:18;;;;;;;18.27;10.63;;;;;;;;;;5008236;28;20018;-78
2021/05/13 05:07:43;;;;;;;17.98;11.68;;;;;;;;;;4990477;28;20022;-78
2021/05/13 05:10:08;;;;;;;21.42;12.75;;;;;;;;;;5006023;28;20025;-80
2021/05/13 05:12:34;;;;;;;21.33;11.98;;;;;;;;;;5011066;28;20034;-79
2021/05/13 05:14:59;;;;;;;19.98;11.58;;;;;;;;;;5010578;28;20034;-77
2021/05/13 05:17:24;;;;;;;21.02;12.02;;;;;;;;;;5011145;28;20034;-78
2021/05/13 05:19:49;;;;;;;17.83;11.90;;;;;;;;;;5010157;28;20045;-78
2021/05/13 05:22:14;;;;;;;20.13;11.70;;;;;;;;;;5012783;28;20030;-78
2021/05/13 05:24:40;;;;;;;19.20;12.23;;;;;;;;;;5008898;28;20529;-78
2021/05/13 05:27:05;;;;;;;18.75;11.27;;;;;;;;;;5005530;28;20062;-78
2021/05/13 05:29:31;;;;;;;18.80;11.82;;;;;;;;;;5009745;28;20490;-77
2021/05/13 05:31:56;;;;;;;19.27;11.55;;;;;;;;;;5009881;28;20061;-78
2021/05/13 05:34:21;;;;;;;20.00;10.93;;;;;;;;;;5008140;28;20452;-78
2021/05/13 05:36:46;;;;;;;19.83;11.45;;;;;;;;;;5009814;28;20055;-78
2021/05/13 05:39:12;;;;;;;23.23;13.02;;;;;;;;;;5008136;28;20137;-78
2021/05/13 05:41:37;;;;;;;19.30;11.73;;;;;;;;;;5009369;28;20599;-78
2021/05/13 05:44:02;;;;;;;22.40;12.60;;;;;;;;;;5006334;28;20026;-77
2021/05/13 05:46:27;;;;;;;19.15;11.82;;;;;;;;;;5006131;28;20399;-78
2021/05/13 05:48:55;;;;;;;20.73;12.48;;;;;;;;;;5008072;28;20113;-78
2021/05/13 05:51:20;;;;;;;20.48;13.23;;;;;;;;;;5009510;28;20045;-80
2021/05/13 05:53:45;;;;;;;19.90;11.82;;;;;;;;;;5004949;28;20406;-72
2021/05/13 05:56:10;;;;;;;20.73;12.77;;;;;;;;;;4992155;28;20085;-72
2021/05/13 05:58:35;;;;;;;19.83;12.25;;;;;;;;;;4991915;28;20577;-72
2021/05/13 06:01:01;;;;;;;20.70;12.18;;;;;;;;;;4990485;28;20022;-72
2021/05/13 06:03:26;;;;;;;19.70;11.35;;;;;;;;;;4991170;28;20485;-71
2021/05/13 06:05:51;;;;;;;23.10;13.05;;;;;;;;;;4989528;28;20090;-73
2021/05/13 06:08:16;;;;;;;17.50;11.30;;;;;;;;;;4993011;28;20042;-72
2021/05/13 06:10:42;;;;;;;20.95;12.90;;;;;;;;;;4996944;28;20027;-73
2021/05/13 06:13:08;;;;;;;22.83;12.45;;;;;;;;;;4989974;28;20023;-73
2021/05/13 06:15:33;;;;;;;19.75;12.02;;;;;;;;;;4991326;28;20038;-73
2021/05/13 06:17:59;;;;;;;19.83;11.73;;;;;;;;;;4989412;28;20033;-73
2021/05/13 06:20:26;;;;;;;18.83;11.48;;;;;;;;;;4986766;28;20034;-73
2021/05/13 06:22:51;;;;;;;18.17;11.35;;;;;;;;;;4988887;28;20029;-73
2021/05/13 06:25:17;;;;;;;21.73;11.85;;;;;;;;;;4995054;28;20026;-72
2021/05/13 06:27:42;;;;;;;19.73;12.57;;;;;;;;;;4993844;28;20023;-73
2021/05/13 06:30:08;;;;;;;18.65;11.35;;;;;;;;;;4990535;28;20026;-73
2021/05/13 06:32:33;;;;;;;17.15;10.35;;;;;;;;;;4988685;28;20505;-73
2021/05/13 06:34:59;;;;;;;21.48;11.77;;;;;;;;;;4990191;28;20041;-72
2021/05/13 06:37:24;;;;;;;19.20;11.23;;;;;;;;;;4996507;28;20026;-71
2021/05/13 06:39:49;;;;;;;17.85;10.43;;;;;;;;;;4989740;28;20045;-73
2021/05/13 06:42:15;;;;;;;19.35;10.57;;;;;;;;;;4990053;28;20092;-73
2021/05/13 06:44:41;;;;;;;18.67;11.18;;;;;;;;;;4990267;28;20031;-72
2021/05/13 06:47:06;;;;;;;15.35;10.15;;;;;;;;;;4989766;28;20081;-72
2021/05/13 06:49:32;;;;;;;17.02;10.20;;;;;;;;;;4989417;28;20494;-72
2021/05/13 06:51:57;;;;;;;20.77;11.50;;;;;;;;;;4989339;28;20030;-73
2021/05/13 06:54:22;;;;;;;17.98;11.35;;;;;;;;;;4988476;28;20433;-74
2021/05/13 06:56:48;;;;;;;17.15;9.95;;;;;;;;;;4989906;28;20030;-73
2021/05/13 06:59:13;;;;;;;17.55;10.32;;;;;;;;;;4988818;28;20046;-73
2021/05/13 07:01:39;;;;;;;17.73;10.30;;;;;;;;;;4989499;28;20359;-72
2021/05/13 07:04:04;;;;;;;17.58;9.98;;;;;;;;;;4988783;28;20042;-73
2021/05/13 07:06:31;;;;;;;17.33;9.95;;;;;;;;;;4989172;28;20109;-72
2021/05/13 07:08:56;;;;;;;18.77;10.15;;;;;;;;;;4983200;28;20062;-73
2021/05/13 07:11:21;;;;;;;17.60;9.93;;;;;;;;;;4989126;28;20080;-73
2021/05/13 07:13:47;;;;;;;19.23;9.38;;;;;;;;;;4988822;28;20608;-74
2021/05/13 07:16:12;;;;;;;14.73;8.98;;;;;;;;;;4988710;28;20125;-72
2021/05/13 07:18:37;;;;;;;14.65;9.57;;;;;;;;;;4989363;28;20022;-73
2021/05/13 07:21:03;;;;;;;16.60;9.00;;;;;;;;;;4989190;28;20046;-73
2021/05/13 07:23:28;;;;;;;19.13;10.65;;;;;;;;;;4987748;28;20046;-73
2021/05/13 07:25:55;;;;;;;18.98;10.00;;;;;;;;;;4972046;28;20053;-74
2021/05/13 07:28:20;;;;;;;15.20;9.20;;;;;;;;;;4989554;28;20054;-73
2021/05/13 07:30:46;;;;;;;15.88;8.77;;;;;;;;;;4989770;28;20430;-72
2021/05/13 07:33:11;;;;;;;15.77;8.48;;;;;;;;;;4987787;28;20032;-73
2021/05/13 07:35:36;;;;;;;16.10;8.60;;;;;;;;;;4989659;28;20544;-73
2021/05/13 07:38:01;;;;;;;13.50;8.40;;;;;;;;;;4989009;28;20030;-73
2021/05/13 07:40:27;;;;;;;14.48;9.02;;;;;;;;;;4971399;28;20532;-73
2021/05/13 07:42:53;;;;;;;13.38;8.38;;;;;;;;;;4989109;28;20105;-72
2021/05/13 07:45:18;;;;;;;12.57;7.80;;;;;;;;;;4989773;28;20481;-72
2021/05/13 07:47:44;;;;;;;14.75;8.30;;;;;;;;;;4989848;28;20033;-73
2021/05/13 07:50:14;;;;;;;16.42;8.52;;;;;;;;;;4989715;28;20548;-73
2021/05/13 07:52:39;;;;;;;13.88;7.82;;;;;;;;;;4989243;28;20019;-74
2021/05/13 07:55:05;;;;;;;13.05;7.90;;;;;;;;;;5004980;28;20512;-72
2021/05/13 07:57:30;;;;;;;12.05;8.05;;;;;;;;;;5009357;28;20026;-73
2021/05/13 07:59:55;;;;;;;18.55;8.48;;;;;;;;;;5009155;28;20417;-73
2021/05/13 08:02:20;;;;;;;10.85;7.57;;;;;;;;;;5009132;28;20104;-73
2021/05/13 08:04:46;;;;;;;14.15;7.70;;;;;;;;;;5009095;28;20366;-73
2021/05/13 08:07:11;;;;;;;10.52;7.55;;;;;;;;;;5008223;28;20105;-72
2021/05/13 08:09:36;;;;;;;13.63;7.20;;;;;;;;;;5008713;28;20021;-74
2021/05/13 08:12:01;;;;;;;14.95;7.93;;;;;;;;;;5007837;28;20473;-74
2021/05/13 08:14:26;;;;;;;11.48;6.90;;;;;;;;;;4990382;28;20041;-72
2021/05/13 08:16:52;;;;;;;19.13;9.07;;;;;;;;;;5009116;28;20033;-72
2021/05/13 08:19:17;;;;;;;13.05;8.20;;;;;;;;;;5008582;28;20065;-72
2021/05/13 08:21:42;;;;;;;14.40;8.63;;;;;;;;;;5008896;28;20152;-72
2021/05/13 08:24:07;;;;;;;13.68;7.53;;;;;;;;;;5009558;28;20022;-73
2021/05/13 08:26:32;;;;;;;12.63;6.97;;;;;;;;;;5011000;28;20014;-73
2021/05/13 08:28:59;;;;;;;12.20;6.70;;;;;;;;;;5009063;28;20102;-74
2021/05/13 08:31:24;;;;;;;12.02;7.18;;;;;;;;;;5008173;28;20036;-74
2021/05/13 08:33:50;;;;;;;11.30;6.65;;;;;;;;;;5009169;28;20034;-73
2021/05/13 08:36:15;;;;;;;12.40;6.78;;;;;;;;;;5008488;28;20045;-73
2021/05/13 08:38:40;;;;;;;12.40;6.47;;;;;;;;;;5005729;28;20032;-73
2021/05/13 08:41:05;;;;;;;13.55;5.90;;;;;;;;;;5005601;28;20033;-73
2021/05/13 08:43:31;;;;;;;10.73;6.20;;;;;;;;;;5007485;28;20026;-73
2021/05/13 08:45:57;;;;;;;11.60;6.60;;;;;;;;;;5009210;28;20517;-73
2021/05/13 08:48:28;;;;;;;10.93;6.28;;;;;;;;;;4993856;28;20038;-73
2021/05/13 08:50:53;;;;;;;10.18;5.97;;;;;;;;;;5012625;28;20061;-73
2021/05/13 08:53:21;;;;;;;13.20;5.68;;;;;;;;;;5012064;28;20073;-72
2021/05/13 08:55:47;;;;;;;8.20;5.32;;;;;;;;;;5012032;28;20109;-72
2021/05/13 08:58:12;;;;;;;8.73;5.32;;;;;;;;;;5012127;28;20105;-72
2021/05/13 09:00:37;;;;;;;9.13;5.00;;;;;;;;;;5011764;28;20381;-71
2021/05/13 09:03:03;;;;;;;9.40;5.75;;;;;;;;;;5010289;28;20030;-73
2021/05/13 09:05:28;;;;;;;9.23;5.40;;;;;;;;;;5012088;28;20022;-72
2021/05/13 09:07:54;;;;;;;9.30;4.85;;;;;;;;;;5011033;28;20033;-72
2021/05/13 09:10:19;;;;;;;9.52;5.13;;;;;;;;;;5012146;28;20025;-72
2021/05/13 09:12:46;;;;;;;8.75;4.47;;;;;;;;;;5011718;28;20071;-73
2021/05/13 09:15:14;;;;;;;8.00;4.07;;;;;;;;;;5010699;28;20084;-73
2021/05/13 09:17:41;;;;;;;9.40;4.30;;;;;;;;;;5011926;28;20018;-72
2021/05/13 09:20:21;;;;;;;8.98;4.00;;;;;;;;;;5010973;28;20473;-72
2021/05/13 09:22:46;;;;;;;;;;;;;;;;;;5009009;28;20026;-73
2021/05/13 09:25:11;;;;;;;5.90;3.88;;;;;;;;;;5011551;28;19920;-72
2021/05/13 09:27:47;;;;;;;10.18;4.28;;;;;;;;;;5011729;28;20055;-72
2021/05/13 09:30:15;;;;;;;5.88;3.78;;;;;;;;;;5005606;28;20026;-73
2021/05/13 09:32:40;;;;;;;7.63;4.03;;;;;;;;;;5011650;28;20017;-73
2021/05/13 09:35:05;;;;;;;6.30;3.50;;;;;;;;;;5011150;28;20133;-72
2021/05/13 09:37:38;;;;;;;7.38;3.47;;;;;;;;;;5011606;28;20050;-73
2021/05/13 09:40:03;;;;;;;5.75;3.50;;;;;;;;;;5011025;28;20520;-73
2021/05/13 09:42:28;;;;;;;6.82;3.25;;;;;;;;;;5011142;28;20025;-74
2021/05/13 09:44:54;;;;;;;6.70;3.35;;;;;;;;;;5010894;28;20030;-74
2021/05/13 09:47:20;;;;;;;7.32;3.42;;;;;;;;;;5011177;28;20021;-74
2021/05/13 09:50:02;;;;;;;7.32;3.70;;;;;;;;;;5007583;28;20095;-73
2021/05/13 09:52:43;;;;;;;5.43;3.55;;;;;;;;;;5003936;28;20109;-76
2021/05/13 09:55:11;;;;;;;7.78;3.42;;;;;;;;;;5012784;28;20082;-75
2021/05/13 09:57:37;;;;;;;12.60;3.78;;;;;;;;;;5010226;28;20026;-74
2021/05/13 10:00:03;;;;;;;8.38;3.97;;;;;;;;;;5015911;28;20076;-74
2021/05/13 10:02:28;;;;;;;8.52;3.97;;;;;;;;;;5011151;28;20041;-76
2021/05/13 10:04:53;;;;;;;8.95;6.13;;;;;;;;;;5011953;28;20343;-76
2021/05/13 10:07:18;;;;;;;7.20;4.60;;;;;;;;;;5012211;28;20040;-74
2021/05/13 10:09:46;;;;;;;6.90;4.50;;;;;;;;;;5014602;28;20030;-75
2021/05/13 10:12:14;;;;;;;11.55;6.55;;;;;;;;;;5023342;28;20006;-77
2021/05/13 10:14:39;;;;;;;9.88;6.20;;;;;;;;;;5017552;28;20041;-74
2021/05/13 10:17:05;;;;;;;7.97;5.47;;;;;;;;;;5007676;28;20026;-74
2021/05/13 10:19:39;;;;;;;8.90;5.47;;;;;;;;;;5012574;28;20388;-74
2021/05/13 10:22:05;;;;;;;9.40;5.57;;;;;;;;;;5020702;28;20053;-75
2021/05/13 10:24:30;;;;;;;10.38;5.80;;;;;;;;;;5028538;28;20045;-76
2021/05/13 10:26:55;;;;;;;10.02;5.32;;;;;;;;;;5024946;28;20025;-75
2021/05/13 10:29:24;;;;;;;7.95;4.95;;;;;;;;;;5023302;28;20037;-74
2021/05/13 10:32:01;;;;;;;10.63;6.22;;;;;;;;;;5017288;28;20423;-70
2021/05/13 10:34:41;;;;;;;9.48;4.90;;;;;;;;;;5011046;28;20025;-70
2021/05/13 10:37:10;;;;;;;10.52;5.95;;;;;;;;;;5006245;28;20041;-75
2021/05/13 10:39:35;;;;;;;7.97;5.38;;;;;;;;;;5008373;28;20018;-76
2021/05/13 10:42:20;;;;;;;12.00;5.70;;;;;;;;;;5012396;28;20028;-73
2021/05/13 10:44:45;;;;;;;8.02;6.07;;;;;;;;;;5006055;28;20507;-74
2021/05/13 10:47:10;;;;;;;8.88;5.53;;;;;;;;;;5011005;28;20109;-74
2021/05/13 10:49:44;;;;;;;9.88;5.43;;;;;;;;;;4993287;28;20034;-74
2021/05/13 10:52:28;;;;;;;8.20;5.35;;;;;;;;;;5011267;28;20021;-75
2021/05/13 10:54:53;;;;;;;7.53;5.43;;;;;;;;;;5010507;28;20069;-74
2021/05/13 10:57:22;;;;;;;7.38;5.00;;;;;;;;;;4992112;28;20038;-74
2021/05/13 11:00:08;;;;;;;11.68;5.97;;;;;;;;;;5010284;28;20385;-74
2021/05/13 11:02:47;;;;;;;8.77;5.25;;;;;;;;;;5009851;28;20033;-73
2021/05/13 11:05:43;;;;;;;10.32;5.55;;;;;;;;;;5004917;28;20081;-73
2021/05/13 11:08:08;;;;;;;7.30;5.13;;;;;;;;;;5007637;28;20080;-74
2021/05/13 11:10:49;;;;;;;8.93;5.75;;;;;;;;;;5008514;28;20030;-74
2021/05/13 11:13:14;;;;;;;8.60;5.50;;;;;;;;;;5009743;28;20299;-73
2021/05/13 11:15:42;;;;;;;8.23;5.70;;;;;;;;;;5008482;28;20424;-74
2021/05/13 11:18:10;;;;;;;10.55;5.78;;;;;;;;;;5009285;28;20020;-75
2021/05/13 11:20:48;;;;;;;8.93;6.00;;;;;;;;;;5008267;28;20058;-74
2021/05/13 11:23:21;;;;;;;8.82;5.70;;;;;;;;;;5011119;28;20041;-73
2021/05/13 11:25:54;;;;;;;9.05;5.55;;;;;;;;;;5001193;28;20040;-73
2021/05/13 11:28:28;;;;;;;8.65;5.10;;;;;;;;;;5004577;28;20065;-73
2021/05/13 11:31:18;;;;;;;8.73;6.35;;;;;;;;;;5009170;28;20638;-72
2021/05/13 11:33:46;;;;;;;8.95;6.20;;;;;;;;;;4929441;29;20039;-72
2021/05/13 11:36:12;;;;;;;9.93;6.20;;;;;;;;;;4928854;29;20044;-72
2021/05/13 11:38:38;;;;;;;8.10;5.65;;;;;;;;;;4932243;29;20035;-71
2021/05/13 11:41:04;;;;;;;9.60;5.45;;;;;;;;;;4932500;29;20439;-72
2021/05/13 11:43:33;;;;;;;9.10;5.57;;;;;;;;;;4929020;29;20027;-71
2021/05/13 11:46:03;;;;;;;7.15;5.20;;;;;;;;;;4928880;29;20036;-71
2021/05/13 11:48:28;;;;;;;8.55;4.82;;;;;;;;;;4928114;29;20032;-72
2021/05/13 11:50:58;;;;;;;7.43;5.13;;;;;;;;;;4929383;29;20047;-72
2021/05/13 11:53:24;;;;;;;6.22;4.35;;;;;;;;;;4929191;29;20028;-72
2021/05/13 11:55:49;;;;;;;7.38;3.88;;;;;;;;;;4931592;29;20526;-72
2021/05/13 11:58:32;;;;;;;7.38;4.70;;;;;;;;;;4927865;29;20035;-72
2021/05/13 12:01:11;;;;;;;8.90;5.00;;;;;;;;;;4927187;29;20028;-72
2021/05/13 12:03:37;;;;;;;8.45;4.90;;;;;;;;;;4928549;29;20040;-73
2021/05/13 12:06:02;;;;;;;7.80;5.00;;;;;;;;;;4928459;29;20031;-72
2021/05/13 12:08:27;;;;;;;5.50;4.03;;;;;;;;;;4928486;29;20035;-71
2021/05/13 12:10:52;;;;;;;8.82;4.60;;;;;;;;;;4961156;28;20525;-72
2021/05/13 12:13:17;;;;;;;6.05;4.03;;;;;;;;;;4988978;28;20124;-71
2021/05/13 12:15:43;;;;;;;7.50;4.20;;;;;;;;;;4989252;28;20037;-71
2021/05/13 12:18:08;;;;;;;7.47;4.47;;;;;;;;;;4988856;28;20049;-71
2021/05/13 12:20:38;;;;;;;8.65;5.07;;;;;;;;;;4990588;28;20113;-71
2021/05/13 12:23:04;;;;;;;6.55;4.13;;;;;;;;;;4992208;28;20023;-71
2021/05/13 12:25:30;;;;;;;5.97;4.68;;;;;;;;;;4989303;28;20222;-74
2021/05/13 12:27:56;;;;;;;9.27;5.43;;;;;;;;;;4993332;28;20042;-74
2021/05/13 12:30:21;;;;;;;10.98;5.43;;;;;;;;;;4993403;28;20136;-75
2021/05/13 12:32:46;;;;;;;7.07;5.07;;;;;;;;;;4992698;28;20022;-75
2021/05/13 12:35:29;;;;;;;8.15;5.07;;;;;;;;;;4992547;28;20026;-75
2021/05/13 12:38:10;;;;;;;7.55;4.85;;;;;;;;;;4992486;28;20029;-75
2021/05/13 12:40:35;;;;;;;8.48;4.88;;;;;;;;;;4992626;28;20025;-75
2021/05/13 12:43:10;;;;;;;11.40;5.20;;;;;;;;;;4992937;28;20108;-77
2021/05/13 12:45:42;;;;;;;5.65;3.90;;;;;;;;;;4992661;28;20061;-75
2021/05/13 12:48:07;;;;;;;7.82;4.88;;;;;;;;;;4992989;28;20034;-76
2021/05/13 12:50:33;;;;;;;7.15;5.15;;;;;;;;;;4992828;28;20057;-74
2021/05/13 12:53:14;;;;;;;6.32;3.72;;;;;;;;;;4992982;28;20069;-72
2021/05/13 12:55:40;;;;;;;7.22;4.38;;;;;;;;;;4991444;28;20311;-73
2021/05/13 12:58:09;;;;;;;8.18;4.85;;;;;;;;;;4981474;28;20101;-72
2021/05/13 13:00:35;;;;;;;6.20;4.43;;;;;;;;;;4986351;28;20030;-73
2021/05/13 13:03:04;;;;;;;7.18;3.78;;;;;;;;;;4988137;28;20422;-73
2021/05/13 13:05:29;;;;;;;7.57;3.72;;;;;;;;;;4986062;28;20041;-74
2021/05/13 13:07:55;;;;;;;6.53;3.60;;;;;;;;;;4982194;28;20014;-72
2021/05/13 13:10:25;;;;;;;4.72;3.65;;;;;;;;;;4983379;28;20296;-72
2021/05/13 13:13:01;;;;;;;6.93;3.72;;;;;;;;;;4986149;28;20116;-73
2021/05/13 13:15:29;;;;;;;9.05;3.90;;;;;;;;;;4985314;28;20104;-73
2021/05/13 13:18:02;;;;;;;5.55;3.45;;;;;;;;;;4985995;28;20023;-74
2021/05/13 13:20:28;;;;;;;4.32;3.20;;;;;;;;;;4982265;28;20050;-73
2021/05/13 13:22:54;;;;;;;4.93;3.13;;;;;;;;;;4966740;28;20417;-72
2021/05/13 13:25:19;;;;;;;4.80;3.40;;;;;;;;;;4976673;28;20033;-73
2021/05/13 13:27:44;;;;;;;7.10;3.20;;;;;;;;;;4985459;28;20022;-72
2021/05/13 13:30:14;;;;;;;6.22;3.50;;;;;;;;;;4991787;28;20027;-72
2021/05/13 13:32:41;;;;;;;7.25;3.78;;;;;;;;;;4991706;28;20061;-73
2021/05/13 13:35:09;;;;;;;5.07;3.50;;;;;;;;;;4992013;28;20496;-72
2021/05/13 13:37:34;;;;;;;5.30;3.80;;;;;;;;;;4974147;28;20049;-73
2021/05/13 13:39:59;;;;;;;5.82;3.25;;;;;;;;;;4974598;28;20029;-72
2021/05/13 13:42:25;;;;;;;7.97;4.07;;;;;;;;;;4991755;28;20012;-72
2021/05/13 13:44:50;;;;;;;4.18;2.53;;;;;;;;;;4984355;28;20038;-73
2021/05/13 13:47:17;;;;;;;4.60;2.70;;;;;;;;;;4991803;28;20425;-72
2021/05/13 13:49:43;;;;;;;2.78;1.77;;;;;;;;;;4988567;28;20740;-72
2021/05/13 13:52:08;;;;;;;3.78;2.00;;;;;;;;;;4991453;28;20061;-72
2021/05/13 13:54:33;;;;;;;4.13;1.90;;;;;;;;;;5000697;28;20117;-73
2021/05/13 13:56:58;;;;;;;3.38;1.70;;;;;;;;;;5011203;28;20030;-73
2021/05/13 13:59:23;;;;;;;2.45;1.17;;;;;;;;;;5009639;28;20026;-74
2021/05/13 14:01:49;;;;;;;2.83;1.50;;;;;;;;;;5010636;28;20460;-73
2021/05/13 14:04:14;;;;;;;2.92;1.30;;;;;;;;;;5008971;28;20280;-73
2021/05/13 14:06:39;;;;;;;2.20;1.00;;;;;;;;;;5010919;28;20101;-74
2021/05/13 14:09:04;;;;;;;2.50;1.10;;;;;;;;;;4991651;28;20030;-74
2021/05/13 14:11:31;;;;;;;2.35;0.73;;;;;;;;;;5010549;28;20253;-75
2021/05/13 14:13:58;;;;;;;2.00;0.90;;;;;;;;;;5009551;28;20113;-73
2021/05/13 14:16:23;;;;;;;1.73;0.93;;;;;;;;;;5005681;28;20049;-72
2021/05/13 14:18:48;;;;;;;2.15;0.90;;;;;;;;;;5009535;28;20358;-73
2021/05/13 14:21:14;;;;;;;1.38;0.93;;;;;;;;;;5010566;28;20895;-72
2021/05/13 14:23:40;;;;;;;3.28;0.90;;;;;;;;;;5008614;28;20018;-74
2021/05/13 14:26:05;;;;;;;3.03;1.10;;;;;;;;;;5008734;28;20042;-73
2021/05/13 14:28:30;;;;;;;2.45;1.13;;;;;;;;;;5010896;28;20022;-72
2021/05/13 14:30:55;;;;;;;1.65;1.00;;;;;;;;;;5009199;28;20143;-73
2021/05/13 14:33:20;;;;;;;3.15;1.23;;;;;;;;;;5009734;28;20025;-71
2021/05/13 14:35:46;;;;;;;2.97;1.30;;;;;;;;;;5008240;28;20360;-72